Time;durP1;ratioP1;P1;durP2;ratioP2;P2;SDS_P1;SDS_P2;PMS_P1;PMS_P2;Temp;Humidity;BMP_temperature;BMP_pressure;BME280_temperature;BME280_humidity;BME280_pressure;Samples;Min_cycle;Max_cycle;Signal;HPM_P1;HPM_P2
2024/01/31 00:00:06;;;;;;;4.95;2.80;;;;;;;9.43;78.44;103304.59;5081359;28;20579;-76
2024/01/31 00:02:32;;;;;;;10.10;2.80;;;;;;;9.33;78.46;103300.16;5073869;28;20056;-76
2024/01/31 00:04:57;;;;;;;10.43;2.88;;;;;;;9.40;78.34;103299.28;5071587;28;20391;-76
2024/01/31 00:07:22;;;;;;;8.15;2.85;;;;;;;9.44;78.20;103304.59;5081089;28;20039;-76
2024/01/31 00:09:48;;;;;;;8.45;3.10;;;;;;;9.47;78.12;103300.22;5075747;28;20104;-76
2024/01/31 00:12:13;;;;;;;8.25;3.08;;;;;;;9.51;77.76;103299.31;5075373;28;20119;-76
2024/01/31 00:14:38;;;;;;;6.38;2.22;;;;;;;9.49;77.65;103296.69;5074457;28;20490;-77
2024/01/31 00:17:04;;;;;;;8.90;2.80;;;;;;;9.51;77.69;103297.56;5083844;28;20052;-77
2024/01/31 00:19:29;;;;;;;11.25;2.92;;;;;;;9.49;77.85;103296.69;5077886;28;20118;-77
2024/01/31 00:21:54;;;;;;;9.32;2.55;;;;;;;9.50;77.76;103313.41;5071024;28;20016;-77
2024/01/31 00:24:19;;;;;;;7.35;2.85;;;;;;;9.47;78.07;103327.50;5082339;28;20468;-77
2024/01/31 00:26:45;;;;;;;7.80;2.50;;;;;;;9.48;78.13;103329.25;5074534;28;20033;-77
2024/01/31 00:29:10;;;;;;;9.63;2.88;;;;;;;9.48;77.70;103331.91;5075240;28;20583;-77
2024/01/31 00:31:36;;;;;;;7.82;3.00;;;;;;;9.50;77.61;103326.63;5076539;28;20479;-77
2024/01/31 00:34:01;;;;;;;9.75;2.88;;;;;;;9.47;77.89;103327.50;5076819;28;20115;-77
2024/01/31 00:36:27;;;;;;;9.93;2.63;;;;;;;9.50;77.73;103338.06;5066708;28;21403;-77
2024/01/31 00:38:53;;;;;;;9.05;3.00;;;;;;;9.47;77.45;103338.06;5070004;28;20432;-77
2024/01/31 00:41:18;;;;;;;9.85;2.50;;;;;;;9.47;77.59;103331.91;5073060;28;20069;-77
2024/01/31 00:43:43;;;;;;;6.05;2.33;;;;;;;9.48;77.76;103344.22;5069375;28;20028;-77
2024/01/31 00:46:10;;;;;;;9.30;3.17;;;;;;;9.43;77.74;103344.22;5070918;28;20029;-77
2024/01/31 00:48:35;;;;;;;5.45;2.45;;;;;;;9.44;78.17;103348.59;5072087;28;20400;-77
2024/01/31 00:51:00;;;;;;;9.52;2.58;;;;;;;9.46;77.40;103346.84;5085404;28;20053;-77
2024/01/31 00:53:26;;;;;;;11.23;2.42;;;;;;;9.39;77.82;103347.69;5076353;28;20032;-76
2024/01/31 00:55:51;;;;;;;8.30;2.42;;;;;;;9.26;78.39;103345.88;5071421;28;20056;-76
2024/01/31 00:58:16;;;;;;;6.65;2.20;;;;;;;9.38;77.71;103348.59;5073747;28;20020;-76
2024/01/31 01:00:42;;;;;;;6.78;2.20;;;;;;;9.43;77.32;103344.22;5074201;28;20035;-76
2024/01/31 01:03:07;;;;;;;9.68;2.58;;;;;;;9.46;77.72;103352.13;5070289;28;20028;-76
2024/01/31 01:05:32;;;;;;;9.20;2.63;;;;;;;9.45;77.57;103360.91;5070542;28;20039;-75
2024/01/31 01:07:59;;;;;;;9.13;2.22;;;;;;;9.42;77.86;103360.94;5082639;28;20383;-76
2024/01/31 01:10:24;;;;;;;8.98;2.95;;;;;;;9.39;77.81;103355.63;5076682;28;20399;-76
2024/01/31 01:12:50;;;;;;;10.90;2.17;;;;;;;9.39;77.49;103353.88;5075867;28;20032;-75
2024/01/31 01:15:18;;;;;;;7.00;2.70;;;;;;;9.43;77.62;103354.75;5070084;28;20110;-76
2024/01/31 01:17:44;;;;;;;7.18;2.50;;;;;;;9.41;77.11;103365.28;5078659;28;20021;-75
2024/01/31 01:20:09;;;;;;;13.00;4.38;;;;;;;9.41;77.45;103361.78;5074061;28;20024;-76
2024/01/31 01:22:35;;;;;;;9.20;2.70;;;;;;;9.35;77.08;103359.13;5074208;28;20024;-76
2024/01/31 01:25:01;;;;;;;3.53;2.28;;;;;;;9.35;76.81;103367.03;5074745;28;20028;-77
2024/01/31 01:27:26;;;;;;;7.43;2.25;;;;;;;9.34;76.92;103373.19;5075729;28;20070;-77
2024/01/31 01:29:51;;;;;;;4.95;2.42;;;;;;;9.35;77.30;103365.28;5073665;28;20024;-77
2024/01/31 01:32:16;;;;;;;9.52;3.25;;;;;;;9.31;76.96;103365.25;5082995;28;20024;-77
2024/01/31 01:34:42;;;;;;;8.05;2.00;;;;;;;9.28;77.12;103363.50;5072074;28;20111;-77
2024/01/31 01:37:07;;;;;;;6.38;2.20;;;;;;;9.28;76.69;103360.84;5079476;28;20031;-77
2024/01/31 01:39:35;;;;;;;6.72;3.00;;;;;;;9.19;77.32;103366.97;5081775;28;20032;-77
2024/01/31 01:42:00;;;;;;;4.63;1.92;;;;;;;9.22;77.14;103368.72;5083178;28;20467;-77
2024/01/31 01:44:29;;;;;;;8.90;2.30;;;;;;;9.20;76.94;103366.06;5076848;28;20035;-77
2024/01/31 01:46:55;;;;;;;6.47;2.03;;;;;;;9.21;77.45;103353.75;5071694;28;20032;-77
2024/01/31 01:49:20;;;;;;;7.43;2.33;;;;;;;9.19;77.38;103363.44;5075988;28;20495;-77
2024/01/31 01:51:45;;;;;;;7.50;2.40;;;;;;;9.18;77.50;103367.81;5088075;28;20064;-77
2024/01/31 01:54:12;;;;;;;7.93;2.05;;;;;;;9.18;77.68;103359.00;5072532;28;20033;-77
2024/01/31 01:56:47;;;;;;;7.82;2.28;;;;;;;9.26;77.44;103362.59;5083146;28;20421;-77
2024/01/31 01:59:13;;;;;;;7.40;1.98;;;;;;;9.21;77.91;103351.13;5076483;28;20382;-77
2024/01/31 02:01:41;;;;;;;5.45;1.90;;;;;;;9.21;77.43;103356.41;5073605;28;20519;-77
2024/01/31 02:04:08;;;;;;;6.45;2.20;;;;;;;9.16;77.54;103361.66;5077218;28;20042;-76
2024/01/31 02:06:33;;;;;;;7.63;2.33;;;;;;;9.15;77.47;103356.38;5073118;28;20031;-76
2024/01/31 02:08:59;;;;;;;4.15;2.10;;;;;;;9.20;77.58;103352.88;5075424;28;20040;-76
2024/01/31 02:11:24;;;;;;;6.88;2.05;;;;;;;9.26;77.59;103354.66;5079934;28;20356;-76
2024/01/31 02:13:50;;;;;;;5.97;2.10;;;;;;;9.28;77.40;103357.31;5077515;28;20034;-76
2024/01/31 02:16:15;;;;;;;7.97;2.88;;;;;;;9.16;77.77;103358.13;5075741;28;20051;-76
2024/01/31 02:18:40;;;;;;;5.50;1.90;;;;;;;9.20;77.13;103354.63;5079030;28;20032;-76
2024/01/31 02:21:06;;;;;;;8.90;2.70;;;;;;;9.16;76.87;103344.94;5080101;28;20419;-76
2024/01/31 02:23:31;;;;;;;5.28;1.88;;;;;;;9.10;77.84;103351.06;5078403;28;20032;-76
2024/01/31 02:25:56;;;;;;;3.33;1.77;;;;;;;9.13;77.53;103347.53;5080268;28;20046;-76
2024/01/31 02:28:22;;;;;;;8.50;1.80;;;;;;;9.17;77.32;103342.28;5075626;28;20395;-76
2024/01/31 02:30:47;;;;;;;5.35;1.63;;;;;;;9.16;77.59;103342.28;5077762;28;20025;-76
2024/01/31 02:33:12;;;;;;;3.30;1.67;;;;;;;9.18;77.22;103357.25;5076593;28;20024;-75
2024/01/31 02:35:38;;;;;;;5.97;1.98;;;;;;;9.17;77.46;103362.53;5081676;28;20025;-75
2024/01/31 02:38:03;;;;;;;4.82;1.90;;;;;;;9.08;77.79;103355.44;5072742;28;20401;-75
2024/01/31 02:40:29;;;;;;;3.42;1.70;;;;;;;9.20;77.13;103355.53;5075428;28;20430;-75
2024/01/31 02:42:55;;;;;;;4.93;1.70;;;;;;;9.20;77.30;103350.25;5078101;28;20040;-75
2024/01/31 02:45:21;;;;;;;4.07;1.85;;;;;;;9.20;76.50;103355.53;5085099;28;20077;-75
2024/01/31 02:47:46;;;;;;;6.80;2.20;;;;;;;9.17;77.70;103360.78;5073439;28;20139;-76
2024/01/31 02:50:11;;;;;;;6.72;2.72;;;;;;;9.24;76.78;103350.28;5079863;28;20198;-75
2024/01/31 02:52:37;;;;;;;6.55;2.33;;;;;;;9.22;77.01;103358.16;5070581;28;20028;-76
2024/01/31 02:55:03;;;;;;;5.75;2.42;;;;;;;9.21;76.83;103351.13;5074102;28;20032;-75
2024/01/31 02:57:29;;;;;;;6.78;1.83;;;;;;;9.12;76.27;103340.50;5078798;28;20468;-75
2024/01/31 02:59:54;;;;;;;5.95;1.95;;;;;;;9.13;76.77;103344.91;5072483;28;20024;-76
2024/01/31 03:02:20;;;;;;;6.30;2.33;;;;;;;9.13;76.54;103347.53;5075665;28;20052;-76
2024/01/31 03:04:45;;;;;;;6.18;1.90;;;;;;;9.03;77.93;103345.72;5076778;28;20028;-75
2024/01/31 03:07:10;;;;;;;6.38;2.20;;;;;;;8.95;76.88;103348.31;5072851;28;20316;-75
2024/01/31 03:09:40;;;;;;;4.35;1.98;;;;;;;8.92;77.52;103333.34;5078586;28;20101;-76
2024/01/31 03:12:05;;;;;;;7.10;2.00;;;;;;;8.99;77.45;103328.09;5076278;28;20044;-75
2024/01/31 03:14:31;;;;;;;6.90;2.33;;;;;;;8.94;77.35;103323.69;5073481;28;20032;-76
2024/01/31 03:16:57;;;;;;;6.28;2.63;;;;;;;8.98;77.78;103329.88;5072858;28;20091;-77
2024/01/31 03:19:22;;;;;;;5.88;2.30;;;;;;;8.99;77.21;103333.38;5075221;28;20499;-77
2024/01/31 03:21:47;;;;;;;7.13;1.95;;;;;;;8.93;77.22;103336.88;5075028;28;20026;-77
2024/01/31 03:24:13;;;;;;;4.50;1.85;;;;;;;8.94;77.81;103331.59;5074686;28;20028;-77
2024/01/31 03:26:38;;;;;;;8.00;2.70;;;;;;;8.98;77.05;103316.69;5075162;28;20028;-77
2024/01/31 03:29:03;;;;;;;5.63;1.77;;;;;;;8.75;78.33;103310.38;5074116;28;20502;-77
2024/01/31 03:31:29;;;;;;;7.75;2.45;;;;;;;8.68;78.43;103320.00;5073556;28;20070;-77
2024/01/31 03:33:54;;;;;;;9.07;2.55;;;;;;;8.75;77.63;103316.50;5073605;28;20023;-77
2024/01/31 03:36:20;;;;;;;4.72;2.05;;;;;;;8.67;78.43;103316.47;5074478;28;20028;-77
2024/01/31 03:38:45;;;;;;;6.65;2.25;;;;;;;8.62;79.01;103318.16;5076329;28;20515;-78
2024/01/31 03:41:10;;;;;;;5.80;2.08;;;;;;;8.74;78.59;103306.84;5071351;28;20035;-78
2024/01/31 03:43:36;;;;;;;4.88;1.88;;;;;;;8.73;78.73;103304.22;5076610;28;20081;-75
2024/01/31 03:46:05;;;;;;;4.45;1.98;;;;;;;8.74;78.73;103309.47;5072222;28;20062;-77
2024/01/31 03:48:31;;;;;;;3.97;2.22;;;;;;;8.76;78.36;103305.09;5070680;28;20035;-77
2024/01/31 03:50:58;;;;;;;6.10;2.72;;;;;;;8.69;78.29;103300.66;5072546;28;20016;-77
2024/01/31 03:53:24;;;;;;;4.82;2.20;;;;;;;8.69;78.66;103309.44;5069640;28;20493;-77
2024/01/31 03:55:50;;;;;;;6.95;2.78;;;;;;;8.65;77.85;103299.75;5078659;28;20023;-77
2024/01/31 03:58:15;;;;;;;4.95;2.40;;;;;;;8.57;78.61;103297.91;5071503;28;20032;-77
2024/01/31 04:00:41;;;;;;;6.60;2.00;;;;;;;8.56;78.95;103302.31;5068909;28;20055;-77
2024/01/31 04:03:07;;;;;;;5.07;2.42;;;;;;;8.58;79.26;103312.84;5073933;28;20082;-77
2024/01/31 04:05:32;;;;;;;6.32;2.03;;;;;;;8.61;79.00;103303.22;5077177;28;20347;-77
2024/01/31 04:07:58;;;;;;;6.43;2.38;;;;;;;8.58;79.04;103295.31;5072644;28;20075;-77
2024/01/31 04:10:23;;;;;;;4.95;2.35;;;;;;;8.63;78.77;103296.22;5069253;28;20063;-77
2024/01/31 04:12:48;;;;;;;5.38;2.25;;;;;;;8.67;78.94;103295.38;5075653;28;20032;-77
2024/01/31 04:15:14;;;;;;;5.93;2.35;;;;;;;8.68;79.16;103299.78;5076001;28;20542;-77
2024/01/31 04:17:39;;;;;;;9.15;2.70;;;;;;;8.67;78.96;103300.66;5072871;28;20054;-77
2024/01/31 04:20:06;;;;;;;5.25;2.15;;;;;;;8.69;78.86;103298.91;5076469;28;20059;-77
2024/01/31 04:22:32;;;;;;;6.97;2.17;;;;;;;8.61;78.49;103291.81;5077582;28;20037;-77
2024/01/31 04:24:57;;;;;;;7.82;2.95;;;;;;;8.48;79.02;103295.22;5076264;28;20054;-75
2024/01/31 04:27:22;;;;;;;7.70;2.92;;;;;;;8.34;80.15;103301.22;5076658;28;20719;-76
2024/01/31 04:29:48;;;;;;;6.30;2.50;;;;;;;8.39;80.04;103298.66;5074022;28;20437;-76
2024/01/31 04:32:13;;;;;;;9.35;2.85;;;;;;;8.48;80.26;103298.72;5077722;28;20369;-75
2024/01/31 04:34:39;;;;;;;5.25;2.60;;;;;;;8.53;80.03;103296.13;5073122;28;20024;-76
2024/01/31 04:37:04;;;;;;;6.93;3.60;;;;;;;8.61;79.90;103297.97;5070895;28;20103;-76
2024/01/31 04:39:30;;;;;;;9.85;3.60;;;;;;;8.55;79.42;103290.00;5066904;28;20136;-76
2024/01/31 04:41:55;;;;;;;8.43;3.70;;;;;;;8.48;79.45;103296.09;5073584;28;20038;-76
2024/01/31 04:44:21;;;;;;;6.15;3.85;;;;;;;8.39;79.81;103294.28;5080425;28;20191;-75
2024/01/31 04:46:46;;;;;;;11.35;4.32;;;;;;;8.41;79.68;103300.44;5077893;28;20480;-75
2024/01/31 04:49:12;;;;;;;8.68;3.67;;;;;;;8.40;79.96;103296.06;5071055;28;20040;-76
2024/01/31 04:51:41;;;;;;;9.77;3.60;;;;;;;8.45;80.41;103292.56;5076558;28;20310;-75
2024/01/31 04:54:07;;;;;;;7.93;3.65;;;;;;;8.48;79.99;103290.81;5074710;28;20035;-76
2024/01/31 04:56:32;;;;;;;9.55;4.20;;;;;;;8.52;79.75;103289.97;5071123;28;20028;-77
2024/01/31 04:58:57;;;;;;;9.18;4.32;;;;;;;8.60;79.39;103290.91;5068908;28;20020;-77
2024/01/31 05:01:23;;;;;;;14.75;5.00;;;;;;;8.65;79.57;103286.56;5072054;28;20177;-77
2024/01/31 05:03:48;;;;;;;7.82;4.22;;;;;;;8.62;79.74;103290.94;5076319;28;20020;-77
2024/01/31 05:06:13;;;;;;;8.05;3.53;;;;;;;8.58;79.62;103292.69;5071366;28;20028;-77
2024/01/31 05:08:39;;;;;;;7.45;3.63;;;;;;;8.57;79.64;103285.63;5074775;28;20040;-77
2024/01/31 05:11:04;;;;;;;10.75;4.03;;;;;;;8.56;80.04;103289.13;5069927;28;20507;-77
2024/01/31 05:13:29;;;;;;;11.85;4.53;;;;;;;8.57;79.94;103287.38;5069378;28;20031;-77
2024/01/31 05:15:55;;;;;;;14.35;4.80;;;;;;;8.53;80.14;103289.09;5077011;28;20020;-77
2024/01/31 05:18:20;;;;;;;14.52;5.13;;;;;;;8.48;80.12;103296.09;5072703;28;20523;-77
2024/01/31 05:20:45;;;;;;;10.82;5.20;;;;;;;8.54;80.35;103288.25;5078904;28;20036;-77
2024/01/31 05:23:11;;;;;;;10.20;5.15;;;;;;;8.53;79.82;103281.19;5070200;28;20027;-77
2024/01/31 05:25:36;;;;;;;11.40;4.57;;;;;;;8.51;80.24;103280.31;5069869;28;20058;-77
2024/01/31 05:28:02;;;;;;;10.32;4.95;;;;;;;8.49;80.25;103282.06;5074119;28;20518;-77
2024/01/31 05:30:27;;;;;;;12.27;5.45;;;;;;;8.44;80.17;103281.16;5072829;28;20480;-77
2024/01/31 05:32:52;;;;;;;17.05;7.65;;;;;;;8.40;80.63;103287.25;5075014;28;20028;-77
2024/01/31 05:35:19;;;;;;;12.35;6.70;;;;;;;8.47;80.52;103291.69;5077490;28;20560;-77
2024/01/31 05:37:44;;;;;;;13.93;7.03;;;;;;;8.53;80.55;103285.56;5067916;28;20018;-77
2024/01/31 05:40:11;;;;;;;16.88;8.75;;;;;;;8.49;80.63;103297.88;5080273;28;20028;-77
2024/01/31 05:42:37;;;;;;;14.63;7.05;;;;;;;8.54;80.69;103296.16;5075380;28;20531;-77
2024/01/31 05:45:03;;;;;;;16.63;7.82;;;;;;;8.42;81.02;103293.41;5066376;28;20111;-77
2024/01/31 05:47:28;;;;;;;19.92;7.72;;;;;;;8.51;80.75;103288.22;5073581;28;20037;-77
2024/01/31 05:49:53;;;;;;;24.27;8.80;;;;;;;8.56;80.83;103290.88;5069999;28;20035;-77
2024/01/31 05:52:19;;;;;;;22.08;8.60;;;;;;;8.46;81.34;103286.41;5071347;28;20476;-77
2024/01/31 05:54:44;;;;;;;23.63;8.98;;;;;;;8.51;81.21;103284.69;5073265;28;20475;-77
2024/01/31 05:57:09;;;;;;;22.17;8.70;;;;;;;8.50;81.24;103285.56;5069476;28;20013;-77
2024/01/31 05:59:39;;;;;;;20.25;8.57;;;;;;;8.53;81.01;103288.22;5069342;28;20536;-77
2024/01/31 06:02:05;;;;;;;21.00;9.00;;;;;;;8.57;80.86;103288.25;5063495;28;20041;-77
2024/01/31 06:04:30;;;;;;;18.23;8.80;;;;;;;8.60;80.92;103284.78;5069897;28;20037;-77
2024/01/31 06:06:55;;;;;;;19.00;8.55;;;;;;;8.64;80.38;103290.06;5072793;28;20324;-77
2024/01/31 06:09:21;;;;;;;20.25;8.45;;;;;;;8.65;80.29;103285.69;5076347;28;20036;-77
2024/01/31 06:11:46;;;;;;;19.77;9.13;;;;;;;8.81;79.61;103292.84;5072701;28;20440;-77
2024/01/31 06:14:11;;;;;;;19.98;7.93;;;;;;;8.71;80.23;103298.91;5070010;28;20108;-77
2024/01/31 06:16:37;;;;;;;18.05;8.23;;;;;;;8.71;80.40;103306.81;5073261;28;20028;-77
2024/01/31 06:19:02;;;;;;;22.13;9.65;;;;;;;8.71;80.09;103295.38;5070687;28;20479;-77
2024/01/31 06:21:28;;;;;;;22.58;9.35;;;;;;;8.76;80.23;103293.66;5076080;28;20108;-77
2024/01/31 06:23:54;;;;;;;22.63;9.88;;;;;;;8.67;80.12;103287.47;5074518;28;20020;-77
2024/01/31 06:26:19;;;;;;;21.75;9.73;;;;;;;8.49;80.90;103278.56;5075518;28;20021;-77
2024/01/31 06:28:48;;;;;;;17.05;9.20;;;;;;;8.48;80.95;103277.63;5074402;28;20036;-77
2024/01/31 06:31:24;;;;;;;24.25;10.15;;;;;;;8.39;81.17;103275.84;5081234;28;20024;-77
2024/01/31 06:33:49;;;;;;;18.13;8.75;;;;;;;8.33;81.87;103269.59;5076749;28;20040;-77
2024/01/31 06:36:14;;;;;;;20.45;9.50;;;;;;;8.38;81.59;103265.25;5080629;28;20526;-77
2024/01/31 06:38:40;;;;;;;21.55;9.75;;;;;;;8.35;81.58;103259.94;5076161;28;20028;-78
2024/01/31 06:41:05;;;;;;;22.02;9.73;;;;;;;8.37;81.46;103255.59;5078360;28;20052;-78
2024/01/31 06:43:30;;;;;;;29.58;10.90;;;;;;;8.36;81.73;103251.16;5080818;28;20118;-78
2024/01/31 06:45:56;;;;;;;25.83;11.20;;;;;;;8.34;81.88;103239.72;5081551;28;20024;-78
2024/01/31 06:48:22;;;;;;;22.42;10.32;;;;;;;8.37;81.88;103245.06;5079909;28;20144;-78
2024/01/31 06:50:48;;;;;;;23.83;10.20;;;;;;;8.34;82.46;103239.72;5074822;28;20033;-78
2024/01/31 06:53:13;;;;;;;24.42;11.73;;;;;;;8.35;82.05;103239.75;5072204;28;20859;-78
2024/01/31 06:55:38;;;;;;;20.67;10.82;;;;;;;8.44;81.78;103249.50;5070101;28;20035;-78
2024/01/31 06:58:04;;;;;;;21.88;10.82;;;;;;;8.45;81.54;103246.00;5078710;28;20432;-78
2024/01/31 07:00:29;;;;;;;23.65;10.68;;;;;;;8.43;81.75;103248.59;5078111;28;20427;-78
2024/01/31 07:02:55;;;;;;;35.00;12.35;;;;;;;8.40;81.90;103245.97;5076004;28;20410;-77
2024/01/31 07:05:20;;;;;;;25.00;12.50;;;;;;;8.30;82.31;103249.38;5073097;28;20110;-77
2024/01/31 07:07:48;;;;;;;30.50;11.38;;;;;;;8.37;82.21;103258.22;5070871;28;20024;-77
2024/01/31 07:10:13;;;;;;;25.83;11.45;;;;;;;8.37;81.84;103271.41;5080078;28;20032;-77
2024/01/31 07:12:38;;;;;;;24.67;11.73;;;;;;;8.45;82.07;103282.91;5064911;28;20058;-77
2024/01/31 07:15:05;;;;;;;23.60;11.23;;;;;;;8.43;82.09;103292.53;5070148;28;20036;-77
2024/01/31 07:17:30;;;;;;;26.75;11.45;;;;;;;8.53;81.46;103309.31;5063295;28;20025;-77
2024/01/31 07:19:55;;;;;;;28.05;11.73;;;;;;;8.66;81.06;103311.19;5068933;28;20025;-77
2024/01/31 07:22:20;;;;;;;27.08;12.00;;;;;;;8.63;80.83;103319.09;5070332;28;20020;-77
2024/01/31 07:24:46;;;;;;;24.75;11.02;;;;;;;8.68;80.84;103326.16;5068309;28;20052;-75
2024/01/31 07:27:11;;;;;;;27.05;12.55;;;;;;;8.69;80.79;103335.81;5072866;28;20115;-76
2024/01/31 07:29:36;;;;;;;29.30;13.05;;;;;;;8.76;80.68;103344.66;5078227;28;20070;-75
2024/01/31 07:32:02;;;;;;;22.33;11.27;;;;;;;8.78;80.23;103336.78;5064851;28;20029;-75
2024/01/31 07:34:27;;;;;;;28.58;11.23;;;;;;;8.80;80.09;103335.00;5066504;28;20021;-75
2024/01/31 07:36:53;;;;;;;28.17;11.77;;;;;;;8.82;79.95;103342.09;5067630;28;20032;-77
2024/01/31 07:39:18;;;;;;;28.80;12.07;;;;;;;8.75;80.08;103342.88;5072648;28;20036;-77
2024/01/31 07:41:44;;;;;;;29.05;12.43;;;;;;;8.80;80.05;103348.19;5071244;28;20514;-79
2024/01/31 07:44:10;;;;;;;26.83;12.98;;;;;;;8.84;79.98;103355.28;5073849;28;20048;-78
2024/01/31 07:46:35;;;;;;;30.20;13.07;;;;;;;8.83;79.70;103351.75;5060034;28;20064;-77
2024/01/31 07:49:01;;;;;;;28.67;12.63;;;;;;;8.87;79.91;103343.00;5059418;28;20033;-77
2024/01/31 07:51:26;;;;;;;28.25;12.05;;;;;;;8.91;79.53;103352.69;5063891;28;20036;-77
2024/01/31 07:53:51;;;;;;;27.77;11.68;;;;;;;8.90;79.90;103353.53;5064739;28;20077;-77
2024/01/31 07:56:17;;;;;;;30.30;13.90;;;;;;;8.90;79.50;103347.38;5078922;28;20028;-75
2024/01/31 07:58:43;;;;;;;20.85;11.27;;;;;;;8.83;79.75;103342.97;5068819;28;20024;-75
2024/01/31 08:01:08;;;;;;;29.10;13.75;;;;;;;8.86;79.64;103350.88;5067184;28;20408;-75
2024/01/31 08:03:38;;;;;;;26.42;13.30;;;;;;;8.80;79.74;103345.56;5063267;28;20552;-75
2024/01/31 08:06:05;;;;;;;27.75;13.85;;;;;;;8.83;79.99;103343.84;5070939;28;20273;-76
2024/01/31 08:08:31;;;;;;;25.55;12.40;;;;;;;8.79;79.73;103352.59;5068659;28;20121;-75
2024/01/31 08:10:57;;;;;;;29.35;13.68;;;;;;;8.74;79.78;103345.53;5070031;28;20112;-75
2024/01/31 08:13:24;;;;;;;31.65;13.43;;;;;;;8.75;80.52;103339.38;5073657;28;20478;-75
2024/01/31 08:15:49;;;;;;;29.70;13.73;;;;;;;8.71;80.47;103338.47;5062211;28;20027;-75
2024/01/31 08:18:15;;;;;;;31.70;14.43;;;;;;;8.71;79.97;103332.31;5071994;28;20016;-75
2024/01/31 08:20:40;;;;;;;28.50;13.75;;;;;;;8.46;80.92;103320.69;5067742;28;20012;-75
2024/01/31 08:23:06;;;;;;;29.40;13.43;;;;;;;8.71;80.49;103342.84;5065573;28;20357;-76
2024/01/31 08:25:31;;;;;;;25.27;13.88;;;;;;;8.76;80.20;103333.22;5070191;28;20103;-76
2024/01/31 08:27:57;;;;;;;26.25;12.05;;;;;;;8.79;79.85;103334.13;5074286;28;20134;-75
2024/01/31 08:30:22;;;;;;;28.67;12.30;;;;;;;8.74;80.06;103338.50;5081945;28;20554;-75
2024/01/31 08:32:48;;;;;;;28.42;14.35;;;;;;;8.83;79.64;103332.41;5078382;28;20035;-75
2024/01/31 08:35:13;;;;;;;30.55;13.68;;;;;;;8.84;79.54;103339.44;5072133;28;20129;-75
2024/01/31 08:37:39;;;;;;;29.25;13.20;;;;;;;8.72;80.06;103328.78;5065511;28;20044;-75
2024/01/31 08:40:06;;;;;;;25.55;12.82;;;;;;;8.81;79.99;103321.84;5072524;28;20059;-75
2024/01/31 08:42:33;;;;;;;26.80;13.18;;;;;;;8.79;80.05;103320.94;5070462;28;20743;-77
2024/01/31 08:44:58;;;;;;;27.67;12.93;;;;;;;8.89;79.93;103313.97;5068878;28;20506;-77
2024/01/31 08:47:24;;;;;;;29.92;14.63;;;;;;;8.92;80.03;103304.34;5076131;28;20020;-77
2024/01/31 08:49:49;;;;;;;30.98;14.60;;;;;;;8.88;80.01;103304.31;5081533;28;20040;-77
2024/01/31 08:52:15;;;;;;;32.72;14.07;;;;;;;8.97;80.29;103303.47;5073099;28;20023;-77
2024/01/31 08:54:40;;;;;;;33.40;15.02;;;;;;;8.97;79.99;103304.38;5064004;28;20024;-77
2024/01/31 08:57:06;;;;;;;37.42;15.35;;;;;;;9.08;79.85;103304.41;5077310;28;20035;-77
2024/01/31 08:59:31;;;;;;;32.38;14.70;;;;;;;9.11;79.72;103296.53;5078024;28;20522;-77
2024/01/31 09:01:56;;;;;;;41.53;15.13;;;;;;;9.14;79.87;103297.44;5069279;28;20074;-77
2024/01/31 09:04:22;;;;;;;34.33;16.48;;;;;;;9.17;79.44;103296.56;5070928;28;20056;-76
2024/01/31 09:06:47;;;;;;;39.35;16.67;;;;;;;9.18;79.73;103293.91;5077513;28;20056;-77
2024/01/31 09:09:13;;;;;;;39.55;15.32;;;;;;;9.25;79.67;103289.56;5067385;28;20028;-76
2024/01/31 09:11:38;;;;;;;34.28;15.50;;;;;;;9.24;79.60;103281.66;5070586;28;20036;-76
2024/01/31 09:14:03;;;;;;;39.50;15.98;;;;;;;9.27;79.36;103276.34;5072725;28;20025;-77
2024/01/31 09:16:29;;;;;;;33.78;15.98;;;;;;;9.18;79.83;103278.06;5073986;28;20074;-77
2024/01/31 09:18:54;;;;;;;41.17;17.48;;;;;;;9.19;79.73;103273.69;5076302;28;20024;-76
2024/01/31 09:21:21;;;;;;;41.63;17.10;;;;;;;9.10;80.21;103265.75;5074618;28;20046;-76
2024/01/31 09:23:47;;;;;;;39.90;15.65;;;;;;;9.18;80.07;103262.22;5069806;28;20044;-76
2024/01/31 09:26:12;;;;;;;39.67;17.00;;;;;;;9.19;79.84;103258.75;5075222;28;20455;-77
2024/01/31 09:28:38;;;;;;;39.90;16.50;;;;;;;9.26;80.01;103250.84;5068115;28;20112;-77
2024/01/31 09:31:04;;;;;;;44.33;16.95;;;;;;;9.19;79.90;103244.66;5070636;28;20020;-77
2024/01/31 09:33:30;;;;;;;40.95;17.20;;;;;;;9.22;80.15;103242.03;5063120;28;20502;-77
2024/01/31 09:35:55;;;;;;;42.15;18.20;;;;;;;9.17;80.48;103241.13;5074082;28;20032;-77
2024/01/31 09:38:21;;;;;;;36.20;15.93;;;;;;;9.07;81.05;103236.69;5079292;28;20545;-77
2024/01/31 09:40:46;;;;;;;35.65;16.27;;;;;;;9.15;80.90;103240.25;5075453;28;20028;-77
2024/01/31 09:43:12;;;;;;;42.58;17.77;;;;;;;9.20;80.56;103241.16;5082199;28;20029;-77
2024/01/31 09:45:39;;;;;;;35.83;16.67;;;;;;;9.05;81.19;103247.25;5073326;28;20020;-77
2024/01/31 09:48:06;;;;;;;37.95;15.55;;;;;;;9.30;80.58;103228.88;5064619;28;20025;-77
2024/01/31 09:50:31;;;;;;;38.45;16.65;;;;;;;9.36;79.72;103231.50;5073387;28;20086;-78
2024/01/31 09:53:00;;;;;;;39.60;20.50;;;;;;;9.35;79.29;103232.41;5073501;28;20021;-77
2024/01/31 09:55:27;;;;;;;41.10;21.00;;;;;;;9.31;79.56;103226.22;5070300;28;20027;-77
2024/01/31 09:57:52;;;;;;;36.08;16.45;;;;;;;9.39;80.00;103229.78;5062251;28;20491;-77
2024/01/31 10:00:18;;;;;;;34.78;16.58;;;;;;;9.46;79.22;103220.09;5061774;28;20023;-77
2024/01/31 10:02:47;;;;;;;39.63;17.40;;;;;;;9.59;78.61;103223.66;5062967;28;21017;-77
2024/01/31 10:05:13;;;;;;;39.95;17.88;;;;;;;9.66;78.89;103233.38;5063357;28;20056;-79
2024/01/31 10:07:41;;;;;;;29.67;15.40;;;;;;;9.66;77.59;103236.88;5071059;28;20119;-79
2024/01/31 10:10:06;;;;;;;34.08;16.92;;;;;;;9.68;77.87;103239.53;5068775;28;20033;-80
2024/01/31 10:12:32;;;;;;;31.75;15.45;;;;;;;9.84;77.10;103233.41;5068457;28;20418;-80
2024/01/31 10:14:57;;;;;;;24.98;13.15;;;;;;;9.75;74.38;103235.16;5068782;28;20111;-78
2024/01/31 10:17:23;;;;;;;27.15;14.27;;;;;;;9.67;75.19;103238.66;5062136;28;20119;-80
2024/01/31 10:19:49;;;;;;;30.13;14.35;;;;;;;9.81;74.80;103245.72;5070063;28;20086;-80
2024/01/31 10:22:15;;;;;;;30.10;15.25;;;;;;;9.88;74.22;103244.84;5077370;28;20039;-80
2024/01/31 10:24:45;;;;;;;26.23;12.77;;;;;;;9.97;74.10;103251.00;5071727;28;20107;-80
2024/01/31 10:27:11;;;;;;;24.02;12.10;;;;;;;10.01;73.01;103254.53;5073025;28;20031;-80
2024/01/31 10:29:39;;;;;;;25.75;12.40;;;;;;;10.03;72.55;103260.72;5081277;28;20403;-79
2024/01/31 10:32:06;;;;;;;22.83;11.68;;;;;;;9.96;72.21;103258.94;5073254;28;20471;-79
2024/01/31 10:34:33;;;;;;;24.23;11.73;;;;;;;10.01;72.61;103259.81;5077772;28;20020;-79
2024/01/31 10:37:00;;;;;;;22.63;11.90;;;;;;;9.93;72.03;103257.19;5075403;28;20032;-79
2024/01/31 10:39:27;;;;;;;22.10;11.18;;;;;;;9.98;71.69;103254.56;5076217;28;20521;-79
2024/01/31 10:41:54;;;;;;;22.98;12.20;;;;;;;10.01;71.37;103257.19;5063739;28;20361;-79
2024/01/31 10:44:21;;;;;;;22.05;11.48;;;;;;;10.00;71.50;103257.19;5061834;28;20039;-79
2024/01/31 10:46:47;;;;;;;22.73;10.43;;;;;;;10.04;70.10;103256.31;5068298;28;20533;-80
2024/01/31 10:49:16;;;;;;;20.23;10.45;;;;;;;10.08;70.79;103263.38;5066584;28;20023;-78
2024/01/31 10:51:45;;;;;;;21.52;10.93;;;;;;;10.12;71.05;103259.84;5068842;28;20461;-79
2024/01/31 10:54:12;;;;;;;17.50;10.20;;;;;;;10.10;69.53;103259.84;5071593;28;20013;-80
2024/01/31 10:56:38;;;;;;;16.42;10.05;;;;;;;10.00;69.85;103254.56;5068184;28;20028;-81
2024/01/31 10:59:06;;;;;;;18.27;9.98;;;;;;;9.97;68.10;103253.66;5071185;28;20538;-80
2024/01/31 11:01:31;;;;;;;17.90;10.13;;;;;;;9.96;69.72;103237.81;5075945;28;20089;-79
2024/01/31 11:03:57;;;;;;;16.30;8.65;;;;;;;10.02;67.84;103244.84;5069791;28;20036;-84
2024/01/31 11:06:30;;;;;;;17.33;9.75;;;;;;;10.03;68.73;103229.00;5074565;28;20097;-82
2024/01/31 11:08:58;;;;;;;15.57;9.23;;;;;;;9.95;67.72;103221.06;5073070;28;20472;-82
2024/01/31 11:11:24;;;;;;;19.10;10.27;;;;;;;9.97;67.75;103224.59;5072813;28;20032;-82
2024/01/31 11:13:56;;;;;;;16.92;10.65;;;;;;;10.05;68.10;103221.97;5072975;28;20074;-80
2024/01/31 11:16:24;;;;;;;17.50;10.32;;;;;;;9.98;68.29;103212.28;5056134;28;20024;-79